createdAt,value
2018-02-23T00:01:33.361Z,12.40
2018-02-23T00:04:00.594Z,13.67
2018-02-23T00:06:27.838Z,15.10
2018-02-23T00:08:54.386Z,13.20
2018-02-23T00:11:20.874Z,13.07
2018-02-23T00:13:47.352Z,12.87
2018-02-23T00:16:14.568Z,13.03
2018-02-23T00:18:41.046Z,13.73
2018-02-23T00:21:08.389Z,12.77
2018-02-23T00:23:34.877Z,13.23
2018-02-23T00:26:01.367Z,12.63
2018-02-23T00:28:28.583Z,13.50
2018-02-23T00:30:55.062Z,14.17
2018-02-23T00:33:22.279Z,12.50
2018-02-23T00:35:48.741Z,13.80
2018-02-23T00:38:15.954Z,13.23
2018-02-23T00:40:42.436Z,12.23
2018-02-23T00:43:08.930Z,13.63
2018-02-23T00:45:35.427Z,13.87
2018-02-23T00:48:02.089Z,13.67
2018-02-23T00:50:28.590Z,14.03
2018-02-23T00:52:55.064Z,12.97
2018-02-23T00:55:21.562Z,13.97
2018-02-23T00:57:48.255Z,12.77
2018-02-23T01:00:14.764Z,13.50
2018-02-23T01:02:41.258Z,13.73
2018-02-23T01:05:07.744Z,13.23
2018-02-23T01:07:34.218Z,13.30
2018-02-23T01:10:01.820Z,13.07
2018-02-23T01:12:28.317Z,13.30
2018-02-23T01:14:55.717Z,13.87
2018-02-23T01:17:22.213Z,13.20
2018-02-23T01:19:48.715Z,15.03
2018-02-23T01:22:15.210Z,13.30
2018-02-23T01:24:41.711Z,12.73
2018-02-23T01:27:08.942Z,13.03
2018-02-23T01:29:35.429Z,14.03
2018-02-23T01:32:01.921Z,13.23
2018-02-23T01:34:28.584Z,13.17
2018-02-23T01:36:55.171Z,12.73
2018-02-23T01:39:21.667Z,14.17
2018-02-23T01:41:48.141Z,15.00
2018-02-23T01:44:14.631Z,13.27
2018-02-23T01:46:42.922Z,13.40
2018-02-23T01:49:10.247Z,13.47
2018-02-23T01:51:37.517Z,12.33
2018-02-23T01:54:04.000Z,12.53
2018-02-23T01:56:30.477Z,13.23
2018-02-23T01:58:56.970Z,12.37
2018-02-23T02:01:23.482Z,12.63
2018-02-23T02:03:50.126Z,13.20
2018-02-23T02:06:16.632Z,12.20
2018-02-23T02:08:43.097Z,12.63
2018-02-23T02:11:09.589Z,12.87
2018-02-23T02:13:36.066Z,13.47
2018-02-23T02:16:02.563Z,12.77
2018-02-23T02:18:29.046Z,12.17
2018-02-23T02:20:55.521Z,11.50
2018-02-23T02:23:22.004Z,12.83
2018-02-23T02:25:48.497Z,13.33
2018-02-23T02:28:14.985Z,14.23
2018-02-23T02:30:41.595Z,11.97
2018-02-23T02:33:08.069Z,12.70
2018-02-23T02:35:34.539Z,13.83
2018-02-23T02:38:01.030Z,12.83
2018-02-23T02:40:28.525Z,12.63
2018-02-23T02:42:55.022Z,13.77
2018-02-23T02:45:21.636Z,13.07
2018-02-23T02:47:48.183Z,12.90
2018-02-23T02:50:14.704Z,13.27
2018-02-23T02:52:41.193Z,12.27
2018-02-23T02:55:07.646Z,12.17
2018-02-23T02:57:34.106Z,13.37
2018-02-23T03:00:00.622Z,12.30
2018-02-23T03:02:27.113Z,12.23
2018-02-23T03:04:54.341Z,12.00
2018-02-23T03:07:20.829Z,12.87
2018-02-23T03:09:47.334Z,11.67
2018-02-23T03:12:14.559Z,12.40
2018-02-23T03:14:41.047Z,12.33
2018-02-23T03:17:07.576Z,12.70
2018-02-23T03:19:34.081Z,13.67
2018-02-23T03:22:00.557Z,13.23
2018-02-23T03:24:27.071Z,11.93
2018-02-23T03:26:53.586Z,11.80
2018-02-23T03:29:20.072Z,11.37
2018-02-23T03:31:46.567Z,12.43
2018-02-23T03:34:13.931Z,12.03
2018-02-23T03:36:40.427Z,11.97
2018-02-23T03:39:06.889Z,12.87
2018-02-23T03:41:34.115Z,13.13
2018-02-23T03:44:00.610Z,12.93
2018-02-23T03:46:27.096Z,12.30
2018-02-23T03:48:53.779Z,12.63
2018-02-23T03:51:20.264Z,12.53
2018-02-23T03:53:46.751Z,12.53
2018-02-23T03:56:13.313Z,12.47
2018-02-23T03:58:39.796Z,11.87
2018-02-23T04:01:07.017Z,12.00
2018-02-23T04:03:33.576Z,13.43
2018-02-23T04:06:00.062Z,12.40
2018-02-23T04:08:26.579Z,11.33
2018-02-23T04:10:53.058Z,11.57
2018-02-23T04:13:19.538Z,11.63
2018-02-23T04:15:46.065Z,11.30
2018-02-23T04:18:12.567Z,11.97
2018-02-23T04:20:39.045Z,12.17
2018-02-23T04:23:05.519Z,11.83
2018-02-23T04:25:32.003Z,13.27
2018-02-23T04:27:59.205Z,12.63
2018-02-23T04:30:25.687Z,12.17
2018-02-23T04:32:52.925Z,12.43
2018-02-23T04:35:19.386Z,10.77
2018-02-23T04:37:45.961Z,13.50
2018-02-23T04:40:12.498Z,11.77
2018-02-23T04:42:38.987Z,12.87
2018-02-23T04:45:05.481Z,11.67
2018-02-23T04:47:31.970Z,10.67
2018-02-23T04:49:58.463Z,14.77
2018-02-23T04:52:26.437Z,12.50
2018-02-23T04:54:52.903Z,15.53
2018-02-23T04:57:19.374Z,15.83
2018-02-23T04:59:45.861Z,12.33
2018-02-23T05:02:12.361Z,14.90
2018-02-23T05:04:38.839Z,12.93
2018-02-23T05:07:05.329Z,12.43
2018-02-23T05:12:09.611Z,14.50
2018-02-23T05:14:36.133Z,11.37
2018-02-23T05:17:02.654Z,11.57
2018-02-23T05:19:29.955Z,12.47
2018-02-23T05:21:56.548Z,15.40
2018-02-23T05:24:23.791Z,13.13
2018-02-23T05:26:50.294Z,11.83
2018-02-23T05:29:16.814Z,12.37
2018-02-23T05:31:43.388Z,10.73
2018-02-23T05:34:10.139Z,13.73
2018-02-23T05:36:36.649Z,13.73
2018-02-23T05:39:03.218Z,12.17
2018-02-23T05:41:30.462Z,11.03
2018-02-23T05:43:56.935Z,13.27
2018-02-23T05:46:23.449Z,10.97
2018-02-23T05:48:50.176Z,14.07
2018-02-23T05:51:17.407Z,13.57
2018-02-23T05:53:43.892Z,11.57
2018-02-23T05:56:10.375Z,10.90
2018-02-23T05:58:38.345Z,12.73
2018-02-23T06:01:05.565Z,11.87
2018-02-23T06:03:32.060Z,11.83
2018-02-23T06:05:59.304Z,12.13
2018-02-23T06:08:26.587Z,29.53
2018-02-23T06:10:53.068Z,18.70
2018-02-23T06:13:19.543Z,16.87
2018-02-23T06:15:52.067Z,13.33
2018-02-23T06:18:24.599Z,17.47
2018-02-23T06:20:51.109Z,12.77
2018-02-23T06:23:17.916Z,14.67
2018-02-23T06:25:44.441Z,16.40
2018-02-23T06:28:10.948Z,13.23
2018-02-23T06:30:37.421Z,11.23
2018-02-23T06:33:03.954Z,11.60
2018-02-23T06:35:30.443Z,13.67
2018-02-23T06:37:56.925Z,11.97
2018-02-23T06:40:23.411Z,11.20
2018-02-23T06:42:49.918Z,15.50
2018-02-23T06:45:16.380Z,12.00
2018-02-23T06:47:43.595Z,12.87
2018-02-23T06:50:10.102Z,13.83
2018-02-23T06:52:36.591Z,13.27
2018-02-23T06:55:03.149Z,12.77
2018-02-23T06:57:29.665Z,15.77
2018-02-23T06:59:56.178Z,13.23
2018-02-23T07:02:22.702Z,14.17
2018-02-23T07:04:49.195Z,13.33
2018-02-23T07:07:15.853Z,12.13
2018-02-23T07:09:42.369Z,14.47
2018-02-23T07:12:08.858Z,11.73
2018-02-23T07:14:35.320Z,12.83
2018-02-23T07:17:01.805Z,11.27
2018-02-23T07:19:28.283Z,14.63
2018-02-23T07:21:54.746Z,12.20
2018-02-23T07:24:21.211Z,12.13
2018-02-23T07:26:47.713Z,12.90
2018-02-23T07:29:14.221Z,12.30
2018-02-23T07:31:40.715Z,11.73
2018-02-23T07:34:07.193Z,13.13
2018-02-23T07:36:33.975Z,15.10
2018-02-23T07:39:00.440Z,12.03
2018-02-23T07:41:26.919Z,12.83
2018-02-23T07:43:53.393Z,12.20
2018-02-23T07:46:20.718Z,13.53
2018-02-23T07:48:47.194Z,12.80
2018-02-23T07:51:13.806Z,13.93
2018-02-23T07:53:40.323Z,12.73
2018-02-23T07:56:06.850Z,13.33
2018-02-23T07:58:33.451Z,13.07
2018-02-23T08:01:00.006Z,13.43
2018-02-23T08:03:26.499Z,15.53
2018-02-23T08:05:53.003Z,12.13
2018-02-23T08:08:19.503Z,12.33
2018-02-23T08:10:46.014Z,11.87
2018-02-23T08:13:12.518Z,12.77
2018-02-23T08:15:39.010Z,12.53
2018-02-23T08:18:05.562Z,13.07
2018-02-23T08:20:32.112Z,12.43
2018-02-23T08:22:58.621Z,12.67
2018-02-23T08:25:25.877Z,11.17
2018-02-23T08:27:52.366Z,11.47
2018-02-23T08:30:18.858Z,12.10
2018-02-23T08:32:45.356Z,12.53
2018-02-23T08:35:11.862Z,12.57
2018-02-23T08:37:38.359Z,11.77
2018-02-23T08:40:04.838Z,12.03
2018-02-23T08:42:31.330Z,11.90
2018-02-23T08:44:57.847Z,11.60
2018-02-23T08:47:24.332Z,12.20
2018-02-23T08:49:50.807Z,11.70
2018-02-23T08:52:17.418Z,13.00
2018-02-23T08:54:43.935Z,11.60
2018-02-23T08:57:10.436Z,12.87
2018-02-23T08:59:36.917Z,11.30
2018-02-23T09:02:03.455Z,10.83
2018-02-23T09:04:29.925Z,12.17
2018-02-23T09:06:56.423Z,12.27
2018-02-23T09:09:22.941Z,11.70
2018-02-23T09:11:49.428Z,11.37
2018-02-23T09:14:15.932Z,13.97
2018-02-23T09:16:42.424Z,11.80
2018-02-23T09:19:08.931Z,10.97
2018-02-23T09:21:35.424Z,10.87
2018-02-23T09:24:02.064Z,10.70
2018-02-23T09:26:28.573Z,12.90
2018-02-23T09:28:55.063Z,12.07
2018-02-23T09:31:21.574Z,10.90
2018-02-23T09:36:49.238Z,11.37
2018-02-23T09:39:15.720Z,10.73
2018-02-23T09:41:42.217Z,11.40
2018-02-23T09:44:08.715Z,11.17
2018-02-23T09:46:35.182Z,10.93
2018-02-23T09:49:01.694Z,10.67
2018-02-23T09:51:28.184Z,11.30
2018-02-23T09:53:54.652Z,11.33
2018-02-23T09:56:21.122Z,11.67
2018-02-23T09:58:47.630Z,10.90
2018-02-23T10:01:14.144Z,12.13
2018-02-23T10:03:41.373Z,10.83
2018-02-23T10:06:07.883Z,11.40
2018-02-23T10:08:34.398Z,10.03
2018-02-23T10:11:00.871Z,10.27
2018-02-23T10:13:27.343Z,10.37
2018-02-23T10:15:53.845Z,10.60
2018-02-23T10:18:20.327Z,10.83
2018-02-23T10:20:46.822Z,10.80
2018-02-23T10:23:13.327Z,9.97
2018-02-23T10:25:39.804Z,9.87
2018-02-23T10:28:07.636Z,10.13
2018-02-23T10:30:34.139Z,10.00
2018-02-23T10:33:00.609Z,10.30
2018-02-23T10:35:27.178Z,10.70
2018-02-23T10:37:54.435Z,10.17
2018-02-23T10:40:21.711Z,10.87
2018-02-23T10:42:48.251Z,10.20
2018-02-23T10:45:14.820Z,10.50
2018-02-23T10:47:41.303Z,9.67
2018-02-23T10:50:07.988Z,10.57
2018-02-23T10:52:34.533Z,9.50
2018-02-23T10:55:01.028Z,9.93
2018-02-23T10:57:27.582Z,10.20
2018-02-23T10:59:54.145Z,9.53
2018-02-23T11:02:20.673Z,9.77
2018-02-23T11:04:47.227Z,9.20
2018-02-23T11:07:14.515Z,11.57
2018-02-23T11:09:41.003Z,9.67
2018-02-23T11:12:07.553Z,9.33
2018-02-23T11:14:34.022Z,9.90
2018-02-23T11:17:00.549Z,10.00
2018-02-23T11:19:27.706Z,9.50
2018-02-23T11:21:54.188Z,9.93
2018-02-23T11:24:20.674Z,10.43
2018-02-23T11:26:47.165Z,9.83
2018-02-23T11:29:13.675Z,10.33
2018-02-23T11:31:40.151Z,10.27
2018-02-23T11:34:06.681Z,9.50
2018-02-23T11:36:33.155Z,9.93
2018-02-23T11:38:59.735Z,10.33
2018-02-23T11:41:26.206Z,10.03
2018-02-23T11:43:53.441Z,9.30
2018-02-23T11:46:19.915Z,9.40
2018-02-23T11:48:46.391Z,9.67
2018-02-23T11:51:12.881Z,10.60
2018-02-23T11:53:39.391Z,8.77
2018-02-23T11:56:06.660Z,9.23
2018-02-23T11:58:33.150Z,8.90
2018-02-23T12:00:59.657Z,9.27
2018-02-23T12:03:26.134Z,8.77
2018-02-23T12:05:52.634Z,8.97
2018-02-23T12:08:19.184Z,9.87
2018-02-23T12:10:45.713Z,9.90
2018-02-23T12:13:12.190Z,9.20
2018-02-23T12:15:38.700Z,9.13
2018-02-23T12:18:05.160Z,8.97
2018-02-23T12:20:32.392Z,9.10
2018-02-23T12:22:58.889Z,9.27
2018-02-23T12:25:25.369Z,8.50
2018-02-23T12:27:51.895Z,8.17
2018-02-23T12:30:18.375Z,9.43
2018-02-23T12:32:44.845Z,9.30
2018-02-23T12:35:11.307Z,9.13
2018-02-23T12:37:37.822Z,8.83
2018-02-23T12:40:05.096Z,9.10
2018-02-23T12:42:31.564Z,9.30
2018-02-23T12:44:58.029Z,9.47
2018-02-23T12:47:24.517Z,10.13
2018-02-23T12:49:51.028Z,8.97
2018-02-23T12:52:17.536Z,8.53
2018-02-23T12:54:44.034Z,9.20
2018-02-23T12:57:10.518Z,9.13
2018-02-23T12:59:37.016Z,9.07
2018-02-23T13:02:03.504Z,8.67
2018-02-23T13:04:30.754Z,9.57
2018-02-23T13:06:57.254Z,8.97
2018-02-23T13:09:23.768Z,8.63
2018-02-23T13:11:50.287Z,8.23
2018-02-23T13:14:16.804Z,8.60
2018-02-23T13:16:44.067Z,8.37
2018-02-23T13:19:10.613Z,8.43
2018-02-23T13:21:37.482Z,8.83
2018-02-23T13:24:03.978Z,9.00
2018-02-23T13:26:31.188Z,8.10
2018-02-23T13:28:57.680Z,8.63
2018-02-23T13:31:24.212Z,8.43
2018-02-23T13:33:50.688Z,8.20
2018-02-23T13:36:17.240Z,8.33
2018-02-23T13:38:43.786Z,8.80
2018-02-23T13:41:16.281Z,8.63
2018-02-23T13:43:42.797Z,8.23
2018-02-23T13:46:09.334Z,8.43
2018-02-23T13:48:37.380Z,7.63
2018-02-23T13:51:03.938Z,8.23
2018-02-23T13:53:36.449Z,8.23
2018-02-23T13:56:02.949Z,8.00
2018-02-23T13:58:29.433Z,7.50
2018-02-23T14:00:55.909Z,8.57
2018-02-23T14:03:22.401Z,8.93
2018-02-23T14:05:48.889Z,7.60
2018-02-23T14:08:15.402Z,8.20
2018-02-23T14:10:42.066Z,8.43
2018-02-23T14:13:08.543Z,8.50
2018-02-23T14:15:35.018Z,7.77
2018-02-23T14:18:01.543Z,8.87
2018-02-23T14:20:28.234Z,8.37
2018-02-23T14:22:54.719Z,8.23
2018-02-23T14:25:21.198Z,7.97
2018-02-23T14:27:48.428Z,8.03
2018-02-23T14:30:14.927Z,7.93
2018-02-23T14:32:41.453Z,7.60
2018-02-23T14:35:07.934Z,7.60
2018-02-23T14:37:34.475Z,7.93
2018-02-23T14:40:01.694Z,8.43
2018-02-23T14:42:28.195Z,7.77
2018-02-23T14:44:54.718Z,8.03
2018-02-23T14:47:21.260Z,7.57
2018-02-23T14:50:00.053Z,7.47
2018-02-23T14:52:26.586Z,7.33
2018-02-23T14:54:53.064Z,7.70
2018-02-23T14:57:19.747Z,8.23
2018-02-23T14:59:46.503Z,7.53
2018-02-23T15:02:13.734Z,7.77
2018-02-23T15:04:40.214Z,7.40
2018-02-23T15:07:06.713Z,8.53
2018-02-23T15:09:33.206Z,7.90
2018-02-23T15:11:59.716Z,7.40
2018-02-23T15:14:26.222Z,7.73
2018-02-23T15:16:52.705Z,7.40
2018-02-23T15:19:19.237Z,7.97
2018-02-23T15:21:45.720Z,7.57
2018-02-23T15:24:12.224Z,7.70
2018-02-23T15:26:38.726Z,7.53
2018-02-23T15:29:05.261Z,8.47
2018-02-23T15:31:44.614Z,48.50
2018-02-23T15:34:11.073Z,76.47
2018-02-23T15:36:37.582Z,86.87
2018-02-23T15:39:04.245Z,84.03
2018-02-23T15:41:30.858Z,85.47
2018-02-23T15:43:57.399Z,91.63
2018-02-23T15:46:23.957Z,109.07
2018-02-23T15:51:53.489Z,107.87
2018-02-23T15:54:20.046Z,90.00
2018-02-23T15:56:46.557Z,117.20
2018-02-23T15:59:13.098Z,127.17
2018-02-23T16:01:39.634Z,103.67
2018-02-23T16:04:06.181Z,77.70
2018-02-23T16:06:32.715Z,93.83
2018-02-23T16:08:59.271Z,102.43
2018-02-23T16:11:26.533Z,29.83
2018-02-23T16:13:53.896Z,28.10
2018-02-23T16:16:21.194Z,25.30
2018-02-23T16:18:47.723Z,26.20
2018-02-23T16:21:14.321Z,25.87
2018-02-23T16:23:40.831Z,26.83
2018-02-23T16:26:07.326Z,22.77
2018-02-23T16:28:33.803Z,24.83
2018-02-23T16:31:00.315Z,22.67
2018-02-23T16:33:26.797Z,24.20
2018-02-23T16:35:54.089Z,23.73
2018-02-23T16:38:20.566Z,24.10
2018-02-23T16:40:48.699Z,28.10
2018-02-23T16:43:15.180Z,25.03
2018-02-23T16:45:41.709Z,22.10
2018-02-23T16:48:08.225Z,23.97
2018-02-23T16:50:34.695Z,26.27
2018-02-23T16:53:01.941Z,21.50
2018-02-23T16:55:28.426Z,21.20
2018-02-23T16:57:54.915Z,22.03
2018-02-23T17:00:21.479Z,28.27
2018-02-23T17:02:48.018Z,20.97
2018-02-23T17:05:14.469Z,35.03
2018-02-23T17:07:40.954Z,20.07
2018-02-23T17:10:08.185Z,26.37
2018-02-23T17:12:34.691Z,28.67
2018-02-23T17:15:01.166Z,22.27
2018-02-23T17:17:27.689Z,26.00
2018-02-23T17:19:54.189Z,23.40
2018-02-23T17:22:20.668Z,21.80
2018-02-23T17:24:47.165Z,28.23
2018-02-23T17:27:13.668Z,22.00
2018-02-23T17:29:40.156Z,20.53
2018-02-23T17:32:06.679Z,77.33
2018-02-23T17:34:33.255Z,19.70
2018-02-23T17:36:59.740Z,19.70
2018-02-23T17:39:26.216Z,23.13
2018-02-23T17:41:53.459Z,22.07
2018-02-23T17:44:20.026Z,18.53
2018-02-23T17:46:46.451Z,21.63
2018-02-23T17:49:12.928Z,23.33
2018-02-23T17:51:39.428Z,22.20
2018-02-23T17:54:05.911Z,22.20
2018-02-23T17:56:32.436Z,21.37
2018-02-23T17:58:58.936Z,20.23
2018-02-23T18:08:04.429Z,40.50
2018-02-23T18:10:30.988Z,40.03
2018-02-23T18:12:57.570Z,37.10
2018-02-23T18:15:24.091Z,35.83
2018-02-23T18:17:50.721Z,43.00
2018-02-23T18:20:17.291Z,43.83
2018-02-23T18:22:44.529Z,41.77
2018-02-23T18:25:11.065Z,40.43
2018-02-23T18:27:38.341Z,37.50
2018-02-23T18:30:04.888Z,36.07
2018-02-23T18:32:32.122Z,39.57
2018-02-23T18:34:59.414Z,39.17
2018-02-23T18:37:25.972Z,41.23
2018-02-23T18:39:52.612Z,38.90
2018-02-23T18:42:19.125Z,40.40
2018-02-23T18:44:45.628Z,41.83
2018-02-23T18:47:12.148Z,41.93
2018-02-23T18:49:38.691Z,43.90
2018-02-23T18:52:05.215Z,42.10
2018-02-23T18:54:31.768Z,65.63
2018-02-23T18:56:58.288Z,72.20
2018-02-23T18:59:25.610Z,80.40
2018-02-23T19:01:52.148Z,67.37
2018-02-23T19:04:19.349Z,52.93
2018-02-23T19:06:45.964Z,45.63
2018-02-23T19:09:12.623Z,40.20
2018-02-23T19:11:39.204Z,36.40
2018-02-23T19:14:05.837Z,48.13
2018-02-23T19:16:32.423Z,48.27
2018-02-23T19:18:59.678Z,49.67
2018-02-23T19:21:26.964Z,45.97
2018-02-23T19:23:53.478Z,45.80
2018-02-23T19:26:19.978Z,46.97
2018-02-23T19:28:46.572Z,55.47
2018-02-23T19:31:13.077Z,53.57
2018-02-23T19:33:40.366Z,52.30
2018-02-23T19:36:06.905Z,56.70
2018-02-23T19:38:33.507Z,57.97
2018-02-23T19:41:01.779Z,56.53
2018-02-23T19:43:28.301Z,54.97
2018-02-23T19:45:55.558Z,54.50
2018-02-23T19:48:22.786Z,54.63
2018-02-23T19:50:49.288Z,50.43
2018-02-23T19:53:15.808Z,55.67
2018-02-23T19:55:42.337Z,48.07
2018-02-23T19:58:08.873Z,46.27
2018-02-23T20:00:35.427Z,48.40
2018-02-23T20:03:01.951Z,52.73
2018-02-23T20:05:28.517Z,51.23
2018-02-23T20:07:55.056Z,52.30
2018-02-23T20:10:21.666Z,53.13
2018-02-23T20:12:48.251Z,56.53
2018-02-23T20:15:14.889Z,55.47
2018-02-23T20:17:41.552Z,51.47
2018-02-23T20:20:08.078Z,50.17
2018-02-23T20:22:35.419Z,52.73
2018-02-23T20:25:02.013Z,53.80
2018-02-23T20:27:28.567Z,46.47
2018-02-23T20:29:55.971Z,48.13
2018-02-23T20:32:22.652Z,48.23
2018-02-23T20:34:49.185Z,44.87
2018-02-23T20:37:15.709Z,51.97
2018-02-23T20:39:42.242Z,48.13
2018-02-23T20:42:08.889Z,49.10
2018-02-23T20:44:35.569Z,46.17
2018-02-23T20:47:02.236Z,44.80
2018-02-23T20:49:28.851Z,44.40
2018-02-23T20:51:55.373Z,42.80
2018-02-23T20:54:21.896Z,43.80
2018-02-23T20:56:48.461Z,45.63
2018-02-23T20:59:15.014Z,44.10
2018-02-23T21:01:41.563Z,49.63
2018-02-23T21:04:08.103Z,46.20
2018-02-23T21:06:34.632Z,44.30
2018-02-23T21:09:01.178Z,46.17
2018-02-23T21:11:27.722Z,46.67
2018-02-23T21:13:54.301Z,49.47
2018-02-23T21:16:20.866Z,44.83
2018-02-23T21:18:47.444Z,50.00
2018-02-23T21:21:13.936Z,49.80
2018-02-23T21:23:40.502Z,48.27
2018-02-23T21:26:07.813Z,49.90
2018-02-23T21:28:34.486Z,50.77
2018-02-23T21:31:01.021Z,52.87
2018-02-23T21:33:27.587Z,54.30
2018-02-23T21:35:54.840Z,54.43
2018-02-23T21:38:22.132Z,61.80
2018-02-23T21:40:49.487Z,60.07
2018-02-23T21:43:16.757Z,57.80
2018-02-23T21:45:43.288Z,56.43
2018-02-23T21:48:10.587Z,50.33
2018-02-23T21:50:37.105Z,53.03
2018-02-23T21:53:03.625Z,57.13
2018-02-23T21:55:30.229Z,52.17
2018-02-23T21:57:56.782Z,57.30
2018-02-23T22:00:24.334Z,47.97
2018-02-23T22:02:50.868Z,47.33
2018-02-23T22:05:18.198Z,62.90
2018-02-23T22:07:44.710Z,62.47
2018-02-23T22:10:11.276Z,76.87
2018-02-23T22:12:37.806Z,70.67
2018-02-23T22:15:04.331Z,76.43
2018-02-23T22:17:30.871Z,97.20
2018-02-23T22:19:57.399Z,92.07
2018-02-23T22:22:23.897Z,91.83
2018-02-23T22:24:50.482Z,98.00
2018-02-23T22:27:16.995Z,109.60
2018-02-23T22:29:43.559Z,115.93
2018-02-23T22:32:10.171Z,92.63
2018-02-23T22:34:36.734Z,80.93
2018-02-23T22:37:03.262Z,87.83
2018-02-23T22:39:29.857Z,87.43
2018-02-23T22:41:56.394Z,82.23
2018-02-23T22:44:22.939Z,90.80
2018-02-23T22:46:49.422Z,93.83
2018-02-23T22:49:15.945Z,75.30
2018-02-23T22:51:42.440Z,78.07
2018-02-23T22:54:08.938Z,99.27
2018-02-23T22:56:35.450Z,111.73
2018-02-23T22:59:01.941Z,84.07
2018-02-23T23:01:28.429Z,78.83
2018-02-23T23:03:54.946Z,81.23
2018-02-23T23:06:21.460Z,99.23
2018-02-23T23:08:48.042Z,107.33
2018-02-23T23:11:14.583Z,86.13
2018-02-23T23:13:41.834Z,93.03
2018-02-23T23:16:08.346Z,75.87
2018-02-23T23:18:34.901Z,88.63
2018-02-23T23:21:01.444Z,95.80
2018-02-23T23:23:28.665Z,92.67
2018-02-23T23:25:55.207Z,84.33
2018-02-23T23:28:21.775Z,92.00
2018-02-23T23:30:48.990Z,77.70
2018-02-23T23:33:15.522Z,79.97
2018-02-23T23:35:43.551Z,81.27
2018-02-23T23:38:10.109Z,83.50
2018-02-23T23:40:36.747Z,80.03
2018-02-23T23:43:03.344Z,76.30
2018-02-23T23:45:30.602Z,86.07
2018-02-23T23:47:57.850Z,73.73
2018-02-23T23:50:25.146Z,67.87
2018-02-23T23:52:51.703Z,67.93
2018-02-23T23:55:18.223Z,62.77
2018-02-23T23:57:44.752Z,66.50
